createdAt,value
2022-10-31T00:02:41.372Z,87.37
2022-10-31T00:07:44.297Z,87.38
2022-10-31T00:12:47.099Z,86.84
2022-10-31T00:17:49.830Z,86.65
2022-10-31T00:22:52.614Z,86.59
2022-10-31T00:27:56.184Z,86.79
2022-10-31T00:33:00.198Z,86.54
2022-10-31T00:38:03.290Z,86.44
2022-10-31T00:43:06.100Z,86.36
2022-10-31T00:48:09.742Z,86.37
2022-10-31T00:53:12.560Z,86.65
2022-10-31T00:58:15.850Z,86.47
2022-10-31T01:03:18.917Z,86.80
2022-10-31T01:08:21.683Z,86.84
2022-10-31T01:13:24.552Z,86.73
2022-10-31T01:18:28.973Z,87.11
2022-10-31T01:23:32.824Z,87.87
2022-10-31T01:28:46.230Z,88.45
2022-10-31T01:33:50.164Z,88.61
2022-10-31T01:38:57.334Z,88.52
2022-10-31T01:44:20.348Z,88.50
2022-10-31T01:49:34.374Z,89.10
2022-10-31T01:54:46.834Z,90.20
2022-10-31T01:59:56.174Z,90.46
2022-10-31T02:05:05.545Z,90.13
2022-10-31T02:10:08.732Z,89.21
2022-10-31T02:15:11.900Z,89.50
2022-10-31T02:20:22.115Z,89.21
2022-10-31T02:25:24.908Z,89.47
2022-10-31T02:30:48.895Z,89.49
2022-10-31T02:36:35.449Z,88.82
2022-10-31T02:42:02.383Z,88.59
2022-10-31T02:47:17.708Z,88.91
2022-10-31T02:52:33.530Z,90.04
2022-10-31T02:57:38.560Z,90.37
2022-10-31T03:03:30.843Z,90.44
2022-10-31T03:08:48.087Z,90.60
2022-10-31T03:14:18.944Z,90.71
2022-10-31T03:19:29.829Z,90.94
2022-10-31T03:24:39.383Z,90.62
2022-10-31T03:29:45.573Z,91.18
2022-10-31T03:34:50.823Z,91.22
2022-10-31T03:39:58.195Z,90.74
2022-10-31T03:45:14.638Z,90.71
2022-10-31T03:50:18.552Z,90.18
2022-10-31T03:56:01.923Z,90.47
2022-10-31T04:01:10.572Z,90.50
2022-10-31T04:06:17.736Z,90.25
2022-10-31T04:11:29.678Z,90.67
2022-10-31T04:16:32.969Z,90.89
2022-10-31T04:21:35.731Z,90.81
2022-10-31T04:26:38.648Z,90.50
2022-10-31T04:31:41.383Z,90.42
2022-10-31T04:36:44.153Z,90.31
2022-10-31T04:41:46.946Z,90.06
2022-10-31T04:46:49.834Z,90.24
2022-10-31T04:51:52.622Z,90.78
2022-10-31T04:56:55.399Z,90.72
2022-10-31T05:01:58.283Z,90.93
2022-10-31T05:07:01.124Z,91.04
2022-10-31T05:12:04.554Z,90.89
2022-10-31T05:17:07.459Z,90.99
2022-10-31T05:22:10.275Z,90.79
2022-10-31T05:27:13.052Z,90.65
2022-10-31T05:32:15.982Z,90.50
2022-10-31T05:37:18.729Z,90.74
2022-10-31T05:42:21.523Z,91.11
2022-10-31T05:47:25.151Z,91.47
2022-10-31T05:52:28.029Z,91.26
2022-10-31T05:57:35.033Z,91.25
2022-10-31T06:02:37.833Z,91.21
2022-10-31T06:07:40.968Z,91.01
2022-10-31T06:12:43.728Z,91.21
2022-10-31T06:17:46.490Z,91.13
2022-10-31T06:22:49.330Z,91.35
2022-10-31T06:27:52.134Z,91.40
2022-10-31T06:32:54.988Z,91.78
2022-10-31T06:37:57.861Z,91.88
2022-10-31T06:43:02.436Z,91.68
2022-10-31T06:48:22.181Z,91.87
2022-10-31T06:53:25.425Z,91.67
2022-10-31T06:58:28.263Z,91.64
2022-10-31T07:03:31.059Z,91.40
2022-10-31T07:08:33.858Z,91.25
2022-10-31T07:13:36.793Z,91.00
2022-10-31T07:18:39.736Z,90.96
2022-10-31T07:23:42.680Z,90.81
2022-10-31T07:28:48.587Z,90.68
2022-10-31T07:33:51.753Z,90.55
2022-10-31T07:38:54.657Z,90.35
2022-10-31T07:43:57.486Z,90.04
2022-10-31T07:49:00.358Z,89.52
2022-10-31T07:54:03.278Z,88.95
2022-10-31T07:59:06.061Z,88.69
2022-10-31T08:04:08.852Z,88.54
2022-10-31T08:09:11.769Z,88.34
2022-10-31T08:14:14.561Z,88.44
2022-10-31T08:19:17.437Z,88.29
2022-10-31T08:24:20.345Z,87.61
2022-10-31T08:29:23.177Z,87.42
2022-10-31T08:34:26.593Z,87.15
2022-10-31T08:39:29.625Z,86.67
2022-10-31T08:44:32.421Z,86.08
2022-10-31T08:49:35.303Z,86.17
2022-10-31T08:54:38.238Z,85.21
2022-10-31T08:59:41.034Z,85.69
2022-10-31T09:04:43.833Z,84.88
2022-10-31T09:09:46.914Z,85.03
2022-10-31T09:14:49.691Z,84.23
2022-10-31T09:19:52.465Z,83.58
2022-10-31T09:24:55.273Z,83.43
2022-10-31T09:29:58.108Z,83.23
2022-10-31T09:35:01.474Z,82.87
2022-10-31T09:40:05.877Z,82.90
2022-10-31T09:45:33.892Z,81.19
2022-10-31T09:51:11.024Z,82.07
2022-10-31T09:56:22.106Z,82.26
2022-10-31T10:01:48.798Z,81.08
2022-10-31T10:06:53.243Z,81.32
2022-10-31T10:12:40.893Z,81.11
2022-10-31T10:18:14.402Z,80.64
2022-10-31T10:23:54.951Z,79.93
2022-10-31T10:29:12.581Z,80.18
2022-10-31T10:34:41.447Z,79.18
2022-10-31T10:39:56.852Z,80.18
2022-10-31T10:45:24.964Z,78.68
2022-10-31T10:50:37.151Z,77.98
2022-10-31T10:55:54.052Z,78.17
2022-10-31T11:00:57.336Z,77.49
2022-10-31T11:06:02.257Z,77.38
2022-10-31T11:11:33.027Z,77.67
2022-10-31T11:16:50.253Z,77.57
2022-10-31T11:21:54.212Z,78.15
2022-10-31T11:27:25.116Z,77.49
2022-10-31T11:32:30.820Z,77.54
2022-10-31T11:37:41.116Z,77.57
2022-10-31T11:42:44.925Z,77.43
2022-10-31T11:47:56.663Z,77.99
2022-10-31T11:53:02.690Z,78.01
2022-10-31T11:58:20.445Z,78.14
2022-10-31T12:03:23.265Z,77.77
2022-10-31T12:08:37.421Z,77.08
2022-10-31T12:13:45.430Z,77.61
2022-10-31T12:19:01.932Z,76.69
2022-10-31T12:24:14.505Z,77.23
2022-10-31T12:29:48.584Z,77.47
2022-10-31T12:35:24.850Z,76.96
2022-10-31T12:40:41.334Z,76.80
2022-10-31T12:46:00.309Z,76.60
2022-10-31T12:51:06.115Z,76.42
2022-10-31T12:56:09.072Z,76.14
2022-10-31T13:01:40.094Z,76.43
2022-10-31T13:06:59.597Z,76.44
2022-10-31T13:12:12.886Z,76.21
2022-10-31T13:17:45.237Z,76.71
2022-10-31T13:22:54.140Z,76.61
2022-10-31T13:28:24.301Z,76.76
2022-10-31T13:33:48.658Z,76.82
2022-10-31T13:39:16.241Z,76.69
2022-10-31T13:44:26.093Z,76.78
2022-10-31T13:49:31.987Z,76.84
2022-10-31T13:54:37.891Z,76.97
2022-10-31T13:59:47.605Z,76.87
2022-10-31T14:04:57.898Z,77.02
2022-10-31T14:10:09.251Z,77.12
2022-10-31T14:15:28.888Z,77.20
2022-10-31T14:20:42.500Z,77.36
2022-10-31T14:25:45.822Z,77.55
2022-10-31T14:30:58.859Z,77.92
2022-10-31T14:36:26.354Z,78.30
2022-10-31T14:42:10.633Z,78.33
2022-10-31T14:47:33.493Z,78.67
2022-10-31T14:52:39.478Z,79.02
2022-10-31T14:57:55.380Z,79.11
2022-10-31T15:03:17.928Z,79.22
2022-10-31T15:08:53.377Z,79.32
2022-10-31T15:14:03.329Z,79.62
2022-10-31T15:19:13.426Z,79.70
2022-10-31T15:24:19.782Z,79.82
2022-10-31T15:29:27.901Z,79.88
2022-10-31T15:34:41.081Z,80.13
2022-10-31T15:39:45.822Z,80.21
2022-10-31T15:45:19.697Z,80.39
2022-10-31T15:50:42.033Z,80.54
2022-10-31T15:55:54.496Z,80.69
2022-10-31T16:01:06.372Z,80.68
2022-10-31T16:06:22.290Z,80.82
2022-10-31T16:11:35.276Z,80.86
2022-10-31T16:16:50.602Z,81.00
2022-10-31T16:22:04.885Z,81.35
2022-10-31T16:27:30.048Z,81.36
2022-10-31T16:32:52.658Z,81.50
2022-10-31T16:37:55.824Z,81.71
2022-10-31T16:43:01.588Z,81.84
2022-10-31T16:48:10.843Z,81.63
2022-10-31T16:53:18.626Z,81.61
2022-10-31T16:58:30.747Z,81.72
2022-10-31T17:03:34.143Z,81.73
2022-10-31T17:08:37.445Z,81.93
2022-10-31T17:13:40.691Z,82.17
2022-10-31T17:18:43.975Z,82.31
2022-10-31T17:23:58.031Z,82.56
2022-10-31T17:29:04.038Z,82.67
2022-10-31T17:34:08.963Z,82.86
2022-10-31T17:39:11.931Z,82.99
2022-10-31T17:44:14.758Z,83.06
2022-10-31T17:49:17.599Z,83.29
2022-10-31T17:54:22.933Z,83.32
2022-10-31T17:59:27.762Z,83.79
2022-10-31T18:04:30.563Z,84.03
2022-10-31T18:09:34.298Z,84.33
2022-10-31T18:14:37.123Z,84.93
2022-10-31T18:19:39.948Z,85.18
2022-10-31T18:24:43.151Z,84.79
2022-10-31T18:29:46.636Z,85.35
2022-10-31T18:34:49.537Z,85.72
2022-10-31T18:39:52.490Z,85.22
2022-10-31T18:44:56.258Z,85.27
2022-10-31T18:49:59.190Z,85.81
2022-10-31T18:55:02.026Z,86.03
2022-10-31T19:00:06.925Z,86.19
2022-10-31T19:05:09.883Z,86.51
2022-10-31T19:10:13.036Z,86.79
2022-10-31T19:15:16.039Z,86.38
2022-10-31T19:20:18.995Z,87.13
2022-10-31T19:25:22.121Z,86.85
2022-10-31T19:30:25.035Z,87.15
2022-10-31T19:35:27.994Z,87.00
2022-10-31T19:40:30.961Z,87.11
2022-10-31T19:45:33.920Z,86.94
2022-10-31T19:50:36.785Z,86.90
2022-10-31T19:55:41.339Z,87.19
2022-10-31T20:00:44.301Z,87.06
2022-10-31T20:05:47.573Z,87.14
2022-10-31T20:10:59.475Z,87.14
2022-10-31T20:16:07.164Z,87.44
2022-10-31T20:21:14.450Z,87.43
2022-10-31T20:26:19.890Z,87.66
2022-10-31T20:31:36.035Z,87.39
2022-10-31T20:36:38.974Z,87.37
2022-10-31T20:41:41.920Z,87.50
2022-10-31T20:46:44.758Z,87.59
2022-10-31T20:51:47.832Z,87.44
2022-10-31T20:56:50.760Z,87.91
2022-10-31T21:01:53.831Z,88.01
2022-10-31T21:06:56.874Z,88.11
2022-10-31T21:11:59.867Z,88.03
2022-10-31T21:17:05.135Z,87.99
2022-10-31T21:22:08.081Z,88.03
2022-10-31T21:27:12.511Z,87.96
2022-10-31T21:32:15.688Z,87.88
2022-10-31T21:37:18.616Z,88.24
2022-10-31T21:42:23.305Z,88.46
2022-10-31T21:47:26.304Z,88.13
2022-10-31T21:52:29.200Z,88.03
2022-10-31T21:57:33.004Z,88.42
2022-10-31T22:02:37.335Z,88.54
2022-10-31T22:07:40.324Z,88.27
2022-10-31T22:12:44.166Z,88.08
2022-10-31T22:17:47.001Z,88.32
2022-10-31T22:22:51.079Z,88.42
2022-10-31T22:27:53.940Z,88.39
2022-10-31T22:32:56.764Z,88.43
2022-10-31T22:37:59.625Z,88.57
2022-10-31T22:43:02.765Z,88.46
2022-10-31T22:48:06.447Z,88.38
2022-10-31T22:53:09.286Z,88.43
2022-10-31T22:58:12.254Z,88.35
2022-10-31T23:03:15.181Z,88.32
2022-10-31T23:08:18.015Z,88.49
2022-10-31T23:13:39.458Z,88.40
2022-10-31T23:18:50.154Z,88.39
2022-10-31T23:23:53.632Z,88.68
2022-10-31T23:28:56.528Z,88.63
2022-10-31T23:33:59.338Z,88.50
2022-10-31T23:39:04.888Z,88.50
2022-10-31T23:44:07.861Z,88.43
2022-10-31T23:49:11.568Z,88.46
2022-10-31T23:54:14.644Z,88.43
2022-10-31T23:59:18.194Z,88.54
